Observations for QUIMPER PLUGUFF, France (LFRQ)

LFRQ 242030Z AUTO 25011KT 8000 OVC004 12/11 Q1017 TEMPO 2000 -RA
LFRQ 242000Z AUTO 25010KT 6000 OVC003 12/11 Q1017 TEMPO 2000 -RA
LFRQ 241930Z AUTO 25011KT 4100 -DZ BR OVC003 12/11 Q1017 NOSIG  
LFRQ 241900Z AUTO 24009KT 2100 -DZ BR OVC004 12/11 Q1017 TEMPO 3000 -RA 
LFRQ 241830Z AUTO 24009KT 3100 -DZ BR BKN006 OVC010 11/10 Q1017 TEMPO BKN003
LFRQ 241800Z AUTO 25011KT 5000 BR BKN012 BKN018 OVC026 12/10 Q1017 BECMG BKN017 OVC025  
LFRQ 241730Z AUTO 24010KT 9999 BKN015 OVC028 13/09 Q1017 NOSIG  
LFRQ 241700Z AUTO 23011KT 9999 BKN015 OVC029 13/09 Q1017 BECMG OVC008   
LFRQ 241630Z AUTO 24014KT 9999 BKN017 OVC030 13/09 Q1017 BECMG OVC008   
LFRQ 241600Z AUTO 23013KT 9999 BKN017 OVC028 13/09 Q1017 NOSIG  
LFRQ 241530Z AUTO 24014KT 9999 BKN018 OVC030 14/09 Q1018 NOSIG  
LFRQ 241500Z AUTO 24014KT 9999 BKN017 OVC028 14/09 Q1018 NOSIG  
LFRQ 241430Z AUTO 24013KT 210V270 9999 BKN019 BKN024 OVC030 14/09 Q1018 NOSIG   
LFRQ 241400Z AUTO 23012KT 210V270 9999 BKN018 OVC031 14/10 Q1018 NOSIG  
LFRQ 241330Z AUTO 23010KT 190V260 9999 BKN018 BKN024 OVC031 15/10 Q1019 NOSIG   
LFRQ 241300Z AUTO 22011KT 190V260 9999 OVC017 14/09 Q1019 NOSIG 
LFRQ 241230Z AUTO 24011KT 9999 OVC018 14/09 Q1019 NOSIG 
LFRQ 241200Z AUTO 22009KT 180V270 9999 BKN016 OVC024 14/09 Q1020 NOSIG  
LFRQ 241130Z AUTO 23011KT 200V260 9999 BKN019 BKN024 14/09 Q1020 NOSIG  
LFRQ 241100Z AUTO 22010KT 180V250 9999 BKN019 OVC026 14/09 Q1020 NOSIG  
LFRQ 241030Z AUTO 24009KT 210V270 9999 BKN022 OVC027 14/09 Q1020 NOSIG  
LFRQ 241000Z AUTO 22008KT 180V260 9999 BKN023 OVC028 14/09 Q1020 NOSIG  
LFRQ 240930Z AUTO 21004KT 160V250 9999 BKN019 OVC025 13/10 Q1020 NOSIG  
LFRQ 240900Z AUTO 23005KT 190V280 9999 BKN015 OVC021 13/09 Q1020 NOSIG  
LFRQ 240830Z AUTO 24006KT 210V270 9999 SCT015 OVC022 13/09 Q1020 NOSIG  
LFRQ 240800Z AUTO 25007KT 9999 BKN014 OVC023 13/10 Q1020 BECMG BKN018   
LFRQ 240730Z AUTO 24006KT 9999 BKN015 BKN020 OVC025 12/10 Q1021 TEMPO BKN012
LFRQ 240700Z AUTO 20004KT 9999 BKN017 OVC022 11/10 Q1020 TEMPO BKN012   
LFRQ 240630Z AUTO 20004KT 9999 BKN015 OVC021 10/09 Q1020 TEMPO BKN012   
LFRQ 240600Z AUTO 18004KT 9999 OVC021 09/08 Q1020 TEMPO BKN012  
LFRQ 240530Z AUTO 18002KT 9999 BKN017 OVC022 09/07 Q1020 TEMPO BKN012   
LFRQ 240500Z AUTO 00000KT 9999 OVC016 09/07 Q1020   
LFRQ 240430Z AUTO 04001KT 9999 OVC018 08/07 Q1020   
LFRQ 240400Z AUTO 00000KT 9999 OVC018 08/07 Q1020   
LFRQ 240330Z AUTO 00000KT 9999 OVC018 08/07 Q1020   
LFRQ 240300Z AUTO 00000KT 9999 OVC020 08/07 Q1020   
LFRQ 240230Z AUTO 00000KT 9999 OVC020 08/06 Q1020   
LFRQ 240200Z AUTO VRB03KT 9999 OVC019 08/07 Q1020   
LFRQ 240130Z AUTO 23003KT 9999 BKN022 BKN027 07/05 Q1021
LFRQ 240100Z AUTO 25002KT CAVOK 07/05 Q1021 
LFRQ 240030Z AUTO 00000KT 9999 BKN020 07/05 Q1021   
LFRQ 240000Z AUTO 30002KT CAVOK 07/05 Q1022 
LFRQ 232330Z AUTO 30002KT CAVOK 07/05 Q1022 
LFRQ 232300Z AUTO 29002KT CAVOK 07/05 Q1022 
LFRQ 232230Z AUTO 28002KT CAVOK 07/05 Q1022 
LFRQ 232200Z AUTO 29002KT CAVOK 08/05 Q1022 
LFRQ 232130Z AUTO 27001KT CAVOK 08/05 Q1022 
LFRQ 232100Z AUTO 00000KT CAVOK 08/05 Q1022 NOSIG   
LFRQ 232030Z AUTO 29003KT CAVOK 08/05 Q1022 NOSIG   
LFRQ 232000Z AUTO 27002KT CAVOK 09/05 Q1022 NOSIG